Time;durP1;ratioP1;P1;durP2;ratioP2;P2;SDS_P1;SDS_P2;PMS_P1;PMS_P2;Temp;Humidity;BMP_temperature;BMP_pressure;BME280_temperature;BME280_humidity;BME280_pressure;Samples;Min_cycle;Max_cycle;Signal;HPM_P1;HPM_P2
2022/09/18 00:00:57;;;;;;;2.57;0.47;;;13.10;99.90;;;;;;4957753;28;20923;-89
2022/09/18 00:03:22;;;;;;;0.17;0.17;;;13.00;99.90;;;;;;4973820;28;20275;-89
2022/09/18 00:05:48;;;;;;;0.30;0.30;;;13.00;99.90;;;;;;4957975;28;20563;-89
2022/09/18 00:08:14;;;;;;;0.20;0.20;;;13.10;99.90;;;;;;4957257;28;20229;-89
2022/09/18 00:10:43;;;;;;;0.50;0.50;;;13.10;99.90;;;;;;4957243;28;20396;-89
2022/09/18 00:13:09;;;;;;;0.13;0.13;;;13.00;99.90;;;;;;4973650;28;20224;-90
2022/09/18 00:15:36;;;;;;;0.60;0.40;;;13.00;99.90;;;;;;4957537;28;20193;-89
2022/09/18 00:18:03;;;;;;;0.30;0.10;;;13.00;99.90;;;;;;4958127;28;20195;-89
2022/09/18 00:20:29;;;;;;;1.03;0.37;;;13.10;99.90;;;;;;4973381;28;20264;-89
2022/09/18 00:22:55;;;;;;;1.90;0.97;;;13.20;99.90;;;;;;4973415;28;20311;-91
2022/09/18 00:25:21;;;;;;;4.13;0.40;;;13.20;99.90;;;;;;4973075;28;20217;-90
2022/09/18 00:27:46;;;;;;;0.10;0.10;;;13.10;99.90;;;;;;4940740;28;20716;-89
2022/09/18 00:30:12;;;;;;;0.73;0.37;;;13.20;99.90;;;;;;4957380;28;20192;-89
2022/09/18 00:32:38;;;;;;;1.20;1.10;;;13.20;99.90;;;;;;4956321;28;20595;-89
2022/09/18 00:35:04;;;;;;;1.10;0.30;;;13.30;99.90;;;;;;4957139;28;20308;-90
2022/09/18 00:37:30;;;;;;;1.20;0.70;;;13.20;99.90;;;;;;4956526;28;20227;-90
2022/09/18 00:39:56;;;;;;;1.40;0.27;;;13.20;99.90;;;;;;4956296;28;20208;-90
2022/09/18 00:42:22;;;;;;;0.57;0.33;;;13.20;99.90;;;;;;4956871;28;20672;-89
2022/09/18 00:44:48;;;;;;;2.47;0.40;;;13.20;99.90;;;;;;4957103;28;20180;-91
2022/09/18 00:47:25;;;;;;;0.20;0.20;;;13.30;99.90;;;;;;4972695;28;20768;-90
2022/09/18 00:49:54;;;;;;;0.10;0.10;;;13.20;99.90;;;;;;4972446;28;20599;-90
2022/09/18 00:52:25;;;;;;;3.93;0.30;;;13.20;99.90;;;;;;4973083;28;20216;-90
2022/09/18 00:55:00;;;;;;;0.10;0.10;;;13.20;99.90;;;;;;4988350;28;20232;-90
2022/09/18 00:57:34;;;;;;;0.70;0.30;;;13.30;99.90;;;;;;4972746;28;20192;-90
2022/09/18 01:00:03;;;;;;;0.20;0.20;;;13.30;99.90;;;;;;4973090;28;20177;-90
2022/09/18 01:02:29;;;;;;;2.23;0.60;;;13.30;99.90;;;;;;4971993;28;20220;-90
2022/09/18 01:04:55;;;;;;;6.93;0.80;;;13.30;99.90;;;;;;4940216;28;20212;-90
2022/09/18 01:07:48;;;;;;;3.60;0.40;;;13.30;99.90;;;;;;4931168;28;20231;-90
2022/09/18 01:10:29;;;;;;;13.23;0.90;;;13.30;99.90;;;;;;4972749;28;20800;-89
2022/09/18 01:13:11;;;;;;;2.60;0.73;;;13.40;99.90;;;;;;4973277;28;20272;-90
2022/09/18 01:15:49;;;;;;;1.70;0.47;;;13.40;99.90;;;;;;4971915;28;20185;-89
2022/09/18 01:18:35;;;;;;;0.37;0.30;;;13.40;99.90;;;;;;4972254;28;20271;-90
2022/09/18 01:21:12;;;;;;;0.10;0.10;;;13.40;99.90;;;;;;4973458;28;20223;-90
2022/09/18 01:24:06;;;;;;;0.10;0.10;;;13.50;99.90;;;;;;4971928;28;20231;-90
2022/09/18 01:26:40;;;;;;;0.63;0.30;;;13.10;99.90;;;;;;4973343;28;20310;-89
2022/09/18 01:29:31;;;;;;;0.10;0.10;;;12.60;99.90;;;;;;4973082;28;20314;-90
2022/09/18 01:32:08;;;;;;;4.90;0.40;;;12.50;99.90;;;;;;4988125;28;20220;-90
2022/09/18 01:34:52;;;;;;;3.80;0.57;;;12.40;99.90;;;;;;4987939;28;20227;-90
2022/09/18 01:37:27;;;;;;;4.27;1.07;;;12.30;99.90;;;;;;4987406;28;20224;-90
2022/09/18 01:40:09;;;;;;;1.80;1.03;;;12.30;99.90;;;;;;4971374;28;20227;-89
2022/09/18 01:42:36;;;;;;;0.27;0.27;;;12.30;99.90;;;;;;4987779;28;20661;-90
2022/09/18 01:45:10;;;;;;;2.80;0.47;;;12.40;99.90;;;;;;4956416;28;20205;-90
2022/09/18 01:48:02;;;;;;;1.57;1.50;;;12.50;99.90;;;;;;4955928;28;20271;-90
2022/09/18 01:50:32;;;;;;;5.13;0.53;;;12.60;99.90;;;;;;4966361;28;20220;-90
2022/09/18 01:53:19;;;;;;;1.13;0.93;;;12.80;99.90;;;;;;4955746;28;20229;-91
2022/09/18 01:55:52;;;;;;;0.20;0.20;;;12.70;99.90;;;;;;4971483;28;20300;-89
2022/09/18 01:58:24;;;;;;;0.37;0.37;;;12.70;99.90;;;;;;4987672;28;20224;-89
2022/09/18 02:00:54;;;;;;;0.10;0.10;;;12.50;99.90;;;;;;4972518;28;20263;-90
2022/09/18 02:03:27;;;;;;;1.03;0.43;;;12.20;99.90;;;;;;4971293;28;20208;-88
2022/09/18 02:06:06;;;;;;;0.20;0.20;;;12.00;99.90;;;;;;4971224;28;20568;-88
2022/09/18 02:08:47;;;;;;;0.30;0.20;;;11.80;99.90;;;;;;4970504;28;20751;-88
2022/09/18 02:11:15;;;;;;;0.53;0.20;;;11.70;99.90;;;;;;4971244;28;20224;-88
2022/09/18 02:14:04;;;;;;;0.10;0.10;;;11.80;99.90;;;;;;4971059;28;20710;-88
2022/09/18 02:16:53;;;;;;;0.10;0.10;;;11.90;99.90;;;;;;4972194;28;20223;-89
2022/09/18 02:19:25;;;;;;;0.20;0.20;;;11.90;99.90;;;;;;4987389;28;20283;-89
2022/09/18 02:21:53;;;;;;;3.30;0.20;;;11.80;99.90;;;;;;4971031;28;20304;-89
2022/09/18 02:24:23;;;;;;;0.43;0.43;;;11.70;99.90;;;;;;4971404;28;20188;-89
2022/09/18 02:26:52;;;;;;;0.87;0.60;;;11.60;99.90;;;;;;4971164;28;20216;-88
2022/09/18 02:29:20;;;;;;;2.20;0.40;;;11.60;99.90;;;;;;4954876;28;20228;-88
2022/09/18 02:31:47;;;;;;;2.03;0.43;;;11.60;99.90;;;;;;4986442;28;20661;-89
2022/09/18 02:34:13;;;;;;;0.10;0.10;;;11.50;99.90;;;;;;4955367;28;20342;-89
2022/09/18 02:37:05;;;;;;;0.30;0.30;;;11.60;99.90;;;;;;4955115;28;20295;-89
2022/09/18 02:39:49;;;;;;;0.23;0.23;;;11.70;99.90;;;;;;4970888;28;20200;-88
2022/09/18 02:42:27;;;;;;;5.10;0.50;;;11.70;99.90;;;;;;4971726;28;20250;-88
2022/09/18 02:45:02;;;;;;;9.70;1.43;;;11.80;99.90;;;;;;4970966;28;20216;-89
2022/09/18 02:47:36;;;;;;;0.43;0.30;;;11.80;99.90;;;;;;4972033;28;20224;-88
2022/09/18 02:50:08;;;;;;;1.50;0.30;;;11.90;99.90;;;;;;4970894;28;20220;-89
2022/09/18 02:52:40;;;;;;;0.53;0.20;;;12.00;99.90;;;;;;4968053;28;20232;-88
2022/09/18 02:55:19;;;;;;;3.40;2.13;;;12.20;99.90;;;;;;4967203;28;20225;-89
2022/09/18 02:57:55;;;;;;;0.20;0.20;;;12.40;99.90;;;;;;4951277;28;20220;-89
2022/09/18 03:00:22;;;;;;;0.30;0.30;;;12.50;99.90;;;;;;4967179;28;20192;-88
2022/09/18 03:02:51;;;;;;;0.10;0.10;;;12.40;99.90;;;;;;4967997;28;20208;-89
2022/09/18 03:05:17;;;;;;;0.10;0.10;;;12.30;99.90;;;;;;4958789;28;20227;-89
2022/09/18 03:07:42;;;;;;;0.77;0.77;;;12.30;99.90;;;;;;4950266;28;20232;-88
2022/09/18 03:10:10;;;;;;;0.20;0.20;;;12.40;99.90;;;;;;4950745;28;20228;-89
2022/09/18 03:12:36;;;;;;;0.10;0.10;;;12.50;99.90;;;;;;4928090;28;20196;-88
2022/09/18 03:15:03;;;;;;;0.20;0.20;;;12.50;99.90;;;;;;4951656;28;20193;-89
2022/09/18 03:17:28;;;;;;;0.00;0.00;;;12.50;99.90;;;;;;4954721;28;20220;-89
2022/09/18 03:19:54;;;;;;;0.17;0.17;;;12.60;99.90;;;;;;4954484;28;20630;-88
2022/09/18 03:22:20;;;;;;;0.87;0.87;;;12.60;99.90;;;;;;4954670;28;20227;-88
2022/09/18 03:24:45;;;;;;;0.30;0.30;;;12.70;99.90;;;;;;4954856;28;20819;-88
2022/09/18 03:27:11;;;;;;;1.80;0.20;;;12.70;99.90;;;;;;4954818;28;20188;-88
2022/09/18 03:29:37;;;;;;;1.23;0.30;;;12.70;99.90;;;;;;4954395;28;20291;-89
2022/09/18 03:32:03;;;;;;;1.37;0.40;;;12.80;99.90;;;;;;4969790;28;20213;-88
2022/09/18 03:34:29;;;;;;;0.23;0.23;;;12.80;99.90;;;;;;4969862;28;20251;-89
2022/09/18 03:36:55;;;;;;;5.40;0.63;;;12.80;99.90;;;;;;4954285;28;20260;-89
2022/09/18 03:39:21;;;;;;;4.47;0.53;;;12.70;99.90;;;;;;4954958;28;20192;-89
2022/09/18 03:41:46;;;;;;;0.50;0.20;;;12.70;99.90;;;;;;4953967;28;20201;-88
2022/09/18 03:44:12;;;;;;;0.20;0.20;;;12.50;99.90;;;;;;4953232;28;20227;-88
2022/09/18 03:46:38;;;;;;;1.53;0.77;;;12.30;99.90;;;;;;4954015;28;20220;-88
2022/09/18 03:49:04;;;;;;;0.97;0.30;;;12.00;99.90;;;;;;4970061;28;20294;-88
2022/09/18 03:51:29;;;;;;;3.10;0.37;;;11.90;99.90;;;;;;4953719;28;20193;-89
2022/09/18 03:53:55;;;;;;;1.47;0.30;;;11.80;99.90;;;;;;4954430;28;20192;-89
2022/09/18 03:56:21;;;;;;;4.67;0.47;;;11.70;99.90;;;;;;4953671;28;20279;-88
2022/09/18 03:58:47;;;;;;;3.43;0.50;;;11.70;99.90;;;;;;4953610;28;20224;-88
2022/09/18 04:01:12;;;;;;;4.70;0.40;;;11.70;99.90;;;;;;4953215;28;21276;-89
2022/09/18 04:03:38;;;;;;;1.80;1.70;;;11.80;99.90;;;;;;4953954;28;20613;-88
2022/09/18 04:06:06;;;;;;;0.13;0.10;;;11.80;99.90;;;;;;4954408;28;20196;-89
2022/09/18 04:08:31;;;;;;;0.33;0.20;;;11.90;99.90;;;;;;4969352;28;20236;-89
2022/09/18 04:10:57;;;;;;;0.00;0.00;;;11.90;99.90;;;;;;4953877;28;20232;-89
2022/09/18 04:13:23;;;;;;;0.10;0.10;;;12.00;99.90;;;;;;4953730;28;20693;-88
2022/09/18 04:15:49;;;;;;;3.10;0.47;;;12.10;99.90;;;;;;4969987;28;20288;-88
2022/09/18 04:18:16;;;;;;;0.10;0.10;;;12.20;99.90;;;;;;4954175;28;21352;-89
2022/09/18 04:20:41;;;;;;;0.20;0.20;;;12.30;99.90;;;;;;4953521;28;20220;-89
2022/09/18 04:23:07;;;;;;;0.10;0.10;;;12.40;99.90;;;;;;4969470;28;20224;-89
2022/09/18 04:25:33;;;;;;;0.10;0.10;;;12.50;99.90;;;;;;4969289;28;20703;-89
2022/09/18 04:27:59;;;;;;;0.10;0.10;;;12.50;99.90;;;;;;4944501;28;20232;-88
2022/09/18 04:30:25;;;;;;;2.60;1.10;;;12.60;99.90;;;;;;4953364;28;20565;-89
2022/09/18 04:32:51;;;;;;;3.50;0.57;;;12.70;99.90;;;;;;4953613;28;20200;-89
2022/09/18 04:35:17;;;;;;;1.03;1.03;;;12.60;99.90;;;;;;4952842;28;20220;-88
2022/09/18 04:37:43;;;;;;;0.13;0.13;;;12.60;99.90;;;;;;4953087;28;20208;-89
2022/09/18 04:40:09;;;;;;;1.33;0.57;;;12.60;99.90;;;;;;4953380;28;21120;-89
2022/09/18 04:42:36;;;;;;;4.93;0.60;;;12.60;99.90;;;;;;4952937;28;20199;-88
2022/09/18 04:45:02;;;;;;;0.10;0.10;;;12.70;99.90;;;;;;4953525;28;20192;-88
2022/09/18 04:47:29;;;;;;;1.10;0.80;;;12.70;99.90;;;;;;4968960;28;20303;-89
2022/09/18 04:49:55;;;;;;;0.10;0.10;;;12.50;99.90;;;;;;4953169;28;20220;-88
2022/09/18 04:52:20;;;;;;;0.20;0.20;;;12.30;99.90;;;;;;4952621;28;20212;-88
2022/09/18 04:54:46;;;;;;;0.10;0.10;;;12.20;99.90;;;;;;4952739;28;20275;-88
2022/09/18 04:57:12;;;;;;;1.63;0.30;;;12.10;99.90;;;;;;4969347;28;20192;-88
2022/09/18 04:59:38;;;;;;;3.40;0.40;;;12.10;99.90;;;;;;4936677;28;20316;-88
2022/09/18 05:02:03;;;;;;;0.20;0.20;;;12.20;99.90;;;;;;4968611;28;20231;-88
2022/09/18 05:04:29;;;;;;;0.03;0.03;;;12.20;99.90;;;;;;4952306;28;20224;-89
2022/09/18 05:06:55;;;;;;;3.20;0.47;;;12.10;99.90;;;;;;4952611;28;20229;-88
2022/09/18 05:09:21;;;;;;;1.37;0.30;;;12.10;99.90;;;;;;4952338;28;20244;-88
2022/09/18 05:11:46;;;;;;;1.00;0.50;;;12.10;99.90;;;;;;4952728;28;20189;-88
2022/09/18 05:14:12;;;;;;;0.70;0.37;;;12.20;99.90;;;;;;4951942;28;20303;-89
2022/09/18 05:16:38;;;;;;;0.53;0.53;;;12.30;99.90;;;;;;4952152;28;20221;-89
2022/09/18 05:19:04;;;;;;;0.10;0.10;;;12.20;99.90;;;;;;4952376;28;20208;-88
2022/09/18 05:21:29;;;;;;;1.87;0.53;;;11.80;99.90;;;;;;4952415;28;20189;-88
2022/09/18 05:23:55;;;;;;;0.60;0.60;;;11.60;99.90;;;;;;4952619;28;20181;-88
2022/09/18 05:26:22;;;;;;;1.47;0.83;;;11.50;99.90;;;;;;4968125;28;20221;-88
2022/09/18 05:28:49;;;;;;;0.30;0.30;;;11.50;99.90;;;;;;4967704;28;20229;-88
2022/09/18 05:31:15;;;;;;;1.10;0.30;;;11.50;99.90;;;;;;4951686;28;20212;-88
2022/09/18 05:33:41;;;;;;;0.10;0.10;;;11.50;99.90;;;;;;4951538;28;20220;-88
2022/09/18 05:36:07;;;;;;;0.73;0.40;;;11.50;99.90;;;;;;4952325;28;20216;-89
2022/09/18 05:38:33;;;;;;;0.50;0.47;;;11.60;99.90;;;;;;4951308;28;20239;-88
2022/09/18 05:41:00;;;;;;;0.30;0.30;;;11.60;99.90;;;;;;4951840;28;20696;-88
2022/09/18 05:43:26;;;;;;;0.10;0.10;;;11.70;99.90;;;;;;4967741;28;20219;-88
2022/09/18 05:45:52;;;;;;;1.03;0.20;;;11.80;99.90;;;;;;4951447;28;20272;-88
2022/09/18 05:48:18;;;;;;;0.20;0.20;;;11.80;99.90;;;;;;4952037;28;20212;-89
2022/09/18 05:50:44;;;;;;;0.30;0.30;;;11.90;99.90;;;;;;4951465;28;20240;-88
2022/09/18 05:53:12;;;;;;;1.00;0.30;;;11.90;99.90;;;;;;4951676;28;20217;-88
2022/09/18 05:55:38;;;;;;;0.80;0.30;;;11.90;99.90;;;;;;4967906;28;20275;-88
2022/09/18 05:58:07;;;;;;;0.23;0.23;;;12.00;99.90;;;;;;4967619;28;20970;-89
2022/09/18 06:00:35;;;;;;;0.00;0.00;;;12.10;99.90;;;;;;4967452;28;20588;-88
2022/09/18 06:03:10;;;;;;;3.20;1.13;;;12.20;99.90;;;;;;4951654;28;20204;-88
2022/09/18 06:05:37;;;;;;;0.50;0.30;;;12.10;99.90;;;;;;4967121;28;20215;-88
2022/09/18 06:08:05;;;;;;;0.10;0.10;;;12.10;99.90;;;;;;4966823;28;20226;-88
2022/09/18 06:10:36;;;;;;;0.10;0.10;;;12.10;99.90;;;;;;4951940;28;20228;-89
2022/09/18 06:13:14;;;;;;;0.30;0.27;;;12.10;99.90;;;;;;4951281;28;20219;-88
2022/09/18 06:15:44;;;;;;;0.50;0.40;;;12.10;99.90;;;;;;4967631;28;20344;-88
2022/09/18 06:18:13;;;;;;;1.17;1.07;;;12.10;99.90;;;;;;4983792;28;20180;-88
2022/09/18 06:20:43;;;;;;;0.20;0.20;;;12.00;99.90;;;;;;4967299;28;20226;-88
2022/09/18 06:23:09;;;;;;;0.77;0.57;;;12.00;99.90;;;;;;4952196;28;20885;-89
2022/09/18 06:25:35;;;;;;;18.30;1.57;;;12.00;99.90;;;;;;4967410;28;20319;-88
2022/09/18 06:28:01;;;;;;;2.10;0.30;;;12.10;99.90;;;;;;4950341;28;20224;-88
2022/09/18 06:30:30;;;;;;;4.17;0.73;;;12.10;99.90;;;;;;4967718;28;20197;-88
2022/09/18 06:33:07;;;;;;;4.03;0.70;;;12.20;99.90;;;;;;4967820;28;20195;-89
2022/09/18 06:35:34;;;;;;;2.17;0.60;;;12.30;99.90;;;;;;4967483;28;20228;-88
2022/09/18 06:38:01;;;;;;;2.03;0.80;;;12.30;99.90;;;;;;4966795;28;20236;-88
2022/09/18 06:40:28;;;;;;;0.93;0.50;;;12.30;99.90;;;;;;4951537;28;20212;-89
2022/09/18 06:43:00;;;;;;;3.93;1.83;;;12.30;99.90;;;;;;4967643;28;20811;-89
2022/09/18 06:45:27;;;;;;;1.50;0.67;;;12.30;99.90;;;;;;4951087;28;20673;-88
2022/09/18 06:47:54;;;;;;;3.73;1.43;;;12.30;99.90;;;;;;4966272;28;20216;-89
2022/09/18 06:50:24;;;;;;;0.50;0.50;;;12.30;99.90;;;;;;4968799;28;20212;-88
2022/09/18 06:52:50;;;;;;;5.70;1.10;;;12.20;99.90;;;;;;4970265;28;20223;-88
2022/09/18 06:55:17;;;;;;;3.97;2.13;;;12.10;99.90;;;;;;4969661;28;20580;-87
2022/09/18 06:57:52;;;;;;;3.30;0.73;;;12.10;99.90;;;;;;4954469;28;20217;-88
2022/09/18 07:00:18;;;;;;;2.17;1.10;;;12.10;99.90;;;;;;4954440;28;20219;-89
2022/09/18 07:02:44;;;;;;;2.23;0.70;;;12.10;99.90;;;;;;4969981;28;20247;-87
2022/09/18 07:05:09;;;;;;;0.10;0.10;;;12.20;99.90;;;;;;4954280;28;20213;-88
2022/09/18 07:07:35;;;;;;;0.97;0.40;;;12.20;99.90;;;;;;4970613;28;20306;-88
2022/09/18 07:10:01;;;;;;;0.47;0.33;;;12.10;99.90;;;;;;4953668;28;20256;-87
2022/09/18 07:12:30;;;;;;;0.17;0.17;;;12.10;99.90;;;;;;4954737;28;20204;-87
2022/09/18 07:14:56;;;;;;;0.93;0.30;;;12.10;99.90;;;;;;4970637;28;20185;-88
2022/09/18 07:17:22;;;;;;;0.27;0.27;;;12.10;99.90;;;;;;4954036;28;20216;-89
2022/09/18 07:19:47;;;;;;;1.20;0.30;;;12.10;99.90;;;;;;4954430;28;20299;-87
2022/09/18 07:22:13;;;;;;;0.17;0.17;;;12.10;99.90;;;;;;4953751;28;20220;-87
2022/09/18 07:24:39;;;;;;;0.70;0.70;;;12.10;99.90;;;;;;4970518;28;20185;-86
2022/09/18 07:27:05;;;;;;;0.20;0.10;;;12.00;99.90;;;;;;4969991;28;21262;-87
2022/09/18 07:29:31;;;;;;;4.03;0.37;;;11.90;99.90;;;;;;4969325;28;20747;-88
2022/09/18 07:32:01;;;;;;;2.00;0.20;;;11.90;99.90;;;;;;4953730;28;20677;-87
2022/09/18 07:34:27;;;;;;;1.23;1.07;;;11.80;99.90;;;;;;4953290;28;20213;-87
2022/09/18 07:36:53;;;;;;;0.20;0.20;;;11.80;99.90;;;;;;4953530;28;20253;-87
2022/09/18 07:39:18;;;;;;;1.10;0.17;;;11.90;99.90;;;;;;4954761;28;20275;-87
2022/09/18 07:41:44;;;;;;;0.20;0.20;;;12.00;99.90;;;;;;4953767;28;20609;-88
2022/09/18 07:44:10;;;;;;;2.20;1.23;;;12.10;99.90;;;;;;4953502;28;20327;-88
2022/09/18 07:46:36;;;;;;;3.83;0.87;;;12.20;99.90;;;;;;4953530;28;20566;-87
2022/09/18 07:49:01;;;;;;;0.67;0.30;;;12.30;99.90;;;;;;4953610;28;20225;-88
2022/09/18 07:51:27;;;;;;;0.03;0.03;;;12.50;99.90;;;;;;4953326;28;20280;-88
2022/09/18 07:53:53;;;;;;;0.07;0.07;;;12.50;99.90;;;;;;4954347;28;20192;-87
2022/09/18 07:56:19;;;;;;;2.80;0.17;;;12.60;99.90;;;;;;4953039;28;20212;-88
2022/09/18 07:58:44;;;;;;;0.73;0.17;;;12.60;99.90;;;;;;4953685;28;20744;-89
2022/09/18 08:01:10;;;;;;;0.23;0.23;;;12.20;99.90;;;;;;4952652;28;20217;-88
2022/09/18 08:03:37;;;;;;;0.40;0.40;;;11.80;99.90;;;;;;4953318;28;20283;-88
2022/09/18 08:06:03;;;;;;;8.90;0.47;;;11.80;99.90;;;;;;4953653;28;20185;-88
2022/09/18 08:08:29;;;;;;;3.10;0.63;;;11.90;99.90;;;;;;4968957;28;20228;-88
2022/09/18 08:10:55;;;;;;;0.30;0.30;;;11.90;99.90;;;;;;4953418;28;20204;-90
2022/09/18 08:13:22;;;;;;;0.20;0.20;;;11.80;99.90;;;;;;4953605;28;20263;-91
2022/09/18 08:15:48;;;;;;;0.20;0.20;;;11.90;99.90;;;;;;4953788;28;20209;-91
2022/09/18 08:18:14;;;;;;;8.13;0.43;;;12.00;99.90;;;;;;4953943;28;20207;-91
2022/09/18 08:20:40;;;;;;;2.17;0.10;;;12.10;99.90;;;;;;4953656;28;20252;-91
2022/09/18 08:23:10;;;;;;;0.60;0.60;;;12.10;99.90;;;;;;4929369;28;20224;-90
2022/09/18 08:25:36;;;;;;;0.27;0.27;;;12.20;99.90;;;;;;4969529;28;20315;-90
2022/09/18 08:28:03;;;;;;;0.17;0.17;;;12.30;99.90;;;;;;4953289;28;20252;-89
2022/09/18 08:30:29;;;;;;;0.10;0.10;;;12.20;99.90;;;;;;4969582;28;20196;-89
2022/09/18 08:32:58;;;;;;;1.70;0.40;;;11.80;99.90;;;;;;4970916;28;20749;-89
2022/09/18 08:35:24;;;;;;;3.93;0.97;;;11.50;99.90;;;;;;4984847;28;20252;-90
2022/09/18 08:37:50;;;;;;;0.30;0.30;;;11.50;99.90;;;;;;4969032;28;20240;-89
2022/09/18 08:40:19;;;;;;;0.40;0.40;;;11.50;99.90;;;;;;4968998;28;20224;-89
2022/09/18 08:43:06;;;;;;;0.10;0.10;;;11.60;99.90;;;;;;4969092;28;20276;-90
2022/09/18 08:45:50;;;;;;;0.07;0.07;;;11.70;99.90;;;;;;4985372;28;20227;-89
2022/09/18 08:48:22;;;;;;;5.63;0.63;;;11.80;99.90;;;;;;4969860;28;20205;-90
2022/09/18 08:51:24;;;;;;;3.67;0.70;;;11.90;99.90;;;;;;4969242;28;20224;-90
2022/09/18 08:54:04;;;;;;;0.90;0.40;;;12.00;99.90;;;;;;4969342;28;20699;-89
2022/09/18 08:56:30;;;;;;;0.50;0.50;;;12.00;99.90;;;;;;4968405;28;20221;-90
2022/09/18 08:59:26;;;;;;;3.87;0.40;;;12.10;99.90;;;;;;4952506;28;20589;-90
2022/09/18 09:02:21;;;;;;;2.47;1.07;;;12.10;99.90;;;;;;4984634;28;20216;-91
2022/09/18 09:04:48;;;;;;;5.67;0.40;;;12.10;99.90;;;;;;4969609;28;20705;-89
2022/09/18 09:07:36;;;;;;;3.70;0.47;;;12.10;99.90;;;;;;4968082;28;20287;-89
2022/09/18 09:10:22;;;;;;;2.30;0.70;;;12.10;99.90;;;;;;4967726;28;20231;-90
2022/09/18 09:13:15;;;;;;;0.60;0.60;;;12.10;99.90;;;;;;4968675;28;20221;-91
2022/09/18 09:15:58;;;;;;;4.17;0.20;;;12.10;99.90;;;;;;4969488;28;20192;-90
2022/09/18 09:18:59;;;;;;;1.70;0.97;;;12.10;99.90;;;;;;4968291;28;20255;-91
2022/09/18 09:21:54;;;;;;;0.10;0.10;;;12.00;99.90;;;;;;4968123;28;20172;-92
2022/09/18 09:24:31;;;;;;;0.67;0.50;;;12.00;99.90;;;;;;4969035;28;21145;-91
2022/09/18 09:27:01;;;;;;;4.03;1.07;;;12.00;99.90;;;;;;4968696;28;20220;-91
2022/09/18 09:29:30;;;;;;;0.60;0.57;;;12.00;99.90;;;;;;4984257;28;20220;-90
2022/09/18 09:32:19;;;;;;;3.10;0.97;;;12.00;99.90;;;;;;4968243;28;20300;-91
2022/09/18 09:35:17;;;;;;;0.93;0.53;;;12.10;99.90;;;;;;4968252;28;20697;-91
2022/09/18 09:37:45;;;;;;;0.73;0.73;;;12.20;99.90;;;;;;4961201;28;20222;-91
2022/09/18 09:40:20;;;;;;;1.83;0.87;;;12.30;99.90;;;;;;4951503;28;20293;-90
2022/09/18 09:42:55;;;;;;;5.43;1.80;;;12.40;99.90;;;;;;4967864;28;20219;-91
2022/09/18 09:45:43;;;;;;;2.40;0.67;;;12.50;99.90;;;;;;4968756;28;20543;-90
2022/09/18 09:48:36;;;;;;;2.50;1.77;;;12.50;99.90;;;;;;4967853;28;20236;-91
2022/09/18 09:51:22;;;;;;;1.13;1.13;;;12.60;99.90;;;;;;4966658;28;20235;-91
2022/09/18 09:53:51;;;;;;;0.20;0.13;;;12.60;99.90;;;;;;4968538;28;20679;-90
2022/09/18 09:56:35;;;;;;;0.13;0.13;;;12.60;99.90;;;;;;4928238;28;20814;-90
2022/09/18 09:59:39;;;;;;;0.20;0.20;;;12.90;99.90;;;;;;4967701;28;20220;-91
2022/09/18 10:02:17;;;;;;;0.30;0.30;;;13.20;99.90;;;;;;4968018;28;20219;-91
2022/09/18 10:04:47;;;;;;;5.00;0.77;;;13.30;99.90;;;;;;4967620;28;20711;-90
2022/09/18 10:07:22;;;;;;;3.20;0.30;;;13.40;99.90;;;;;;4968098;28;20208;-90
2022/09/18 10:09:53;;;;;;;0.10;0.10;;;13.50;99.90;;;;;;4967257;28;20234;-90
2022/09/18 10:12:50;;;;;;;0.10;0.10;;;13.60;99.90;;;;;;4968521;28;20444;-91
2022/09/18 10:15:38;;;;;;;2.67;0.80;;;13.60;99.90;;;;;;4967694;28;20220;-90
2022/09/18 10:18:12;;;;;;;1.50;0.50;;;13.60;99.90;;;;;;4968374;28;20207;-91
2022/09/18 10:20:40;;;;;;;0.03;0.03;;;13.70;99.90;;;;;;4967850;28;20220;-90
2022/09/18 10:23:37;;;;;;;1.27;0.80;;;13.70;99.90;;;;;;4944726;28;20374;-89
2022/09/18 10:26:04;;;;;;;0.53;0.20;;;13.70;99.90;;;;;;4963918;28;20220;-89
2022/09/18 10:28:30;;;;;;;0.27;0.27;;;13.70;99.90;;;;;;4971195;28;20233;-89
2022/09/18 10:31:02;;;;;;;9.23;1.70;;;13.70;99.90;;;;;;4971662;28;20267;-90
2022/09/18 10:33:47;;;;;;;0.60;0.40;;;13.70;99.90;;;;;;4971863;28;20266;-89
2022/09/18 10:36:36;;;;;;;1.53;0.40;;;13.70;99.90;;;;;;4971885;28;20177;-89
2022/09/18 10:39:35;;;;;;;0.83;0.20;;;13.80;99.90;;;;;;4972314;28;20264;-90
2022/09/18 10:42:06;;;;;;;0.20;0.10;;;13.80;99.90;;;;;;4971230;28;20220;-90
2022/09/18 10:44:52;;;;;;;2.90;0.10;;;13.90;99.90;;;;;;4971327;28;20696;-92
2022/09/18 10:47:23;;;;;;;0.10;0.10;;;13.90;99.90;;;;;;4971225;28;20283;-90
2022/09/18 10:50:19;;;;;;;2.87;0.73;;;14.00;99.90;;;;;;4971480;28;20267;-91
2022/09/18 10:52:48;;;;;;;2.87;0.50;;;13.90;99.90;;;;;;4941752;28;20576;-91
2022/09/18 10:55:25;;;;;;;0.80;0.53;;;14.00;99.90;;;;;;4955362;28;20579;-90
2022/09/18 10:57:56;;;;;;;0.10;0.10;;;14.00;99.90;;;;;;4947283;28;20204;-90
2022/09/18 11:00:23;;;;;;;0.30;0.30;;;14.00;99.90;;;;;;4970276;28;20661;-90
2022/09/18 11:02:57;;;;;;;1.70;0.70;;;14.00;99.90;;;;;;4971577;28;20189;-90
2022/09/18 11:05:30;;;;;;;2.23;0.73;;;14.10;99.90;;;;;;4987248;28;20224;-90
2022/09/18 11:07:58;;;;;;;1.50;0.40;;;14.10;99.90;;;;;;4971009;28;20231;-89
2022/09/18 11:10:26;;;;;;;0.33;0.20;;;14.10;99.90;;;;;;4970836;28;20228;-91
2022/09/18 11:12:55;;;;;;;0.50;0.40;;;14.20;99.90;;;;;;4971343;28;20208;-90
2022/09/18 11:15:24;;;;;;;2.13;0.40;;;14.20;99.90;;;;;;4971214;28;20176;-91
2022/09/18 11:17:55;;;;;;;2.93;0.30;;;14.20;99.90;;;;;;4971884;28;20266;-90
2022/09/18 11:20:27;;;;;;;3.23;0.30;;;14.20;99.90;;;;;;4970846;28;20216;-90
2022/09/18 11:23:12;;;;;;;0.00;0.00;;;14.20;99.90;;;;;;4971106;28;20278;-90
2022/09/18 11:25:38;;;;;;;1.30;0.80;;;14.20;99.90;;;;;;4940063;28;20224;-88
2022/09/18 11:28:22;;;;;;;3.50;0.77;;;14.20;99.90;;;;;;4954817;28;20225;-91
2022/09/18 11:31:05;;;;;;;1.03;0.33;;;14.20;99.90;;;;;;4971138;28;20213;-90
2022/09/18 11:33:35;;;;;;;0.87;0.83;;;14.20;99.90;;;;;;4969607;28;20216;-90
2022/09/18 11:36:05;;;;;;;0.20;0.20;;;14.30;99.90;;;;;;4969367;28;20188;-90
2022/09/18 11:38:37;;;;;;;0.97;0.83;;;14.30;99.90;;;;;;4970509;28;20224;-90
2022/09/18 11:41:03;;;;;;;1.20;1.10;;;14.30;99.90;;;;;;4970686;28;20247;-92
2022/09/18 11:43:35;;;;;;;0.23;0.20;;;14.30;99.90;;;;;;4954023;28;20213;-90
2022/09/18 11:46:19;;;;;;;0.27;0.10;;;14.30;99.90;;;;;;4970413;28;20217;-90
2022/09/18 11:48:52;;;;;;;0.50;0.43;;;14.30;99.90;;;;;;4986443;28;20227;-90
2022/09/18 11:51:27;;;;;;;2.47;0.30;;;14.40;99.90;;;;;;4970989;28;20189;-92
2022/09/18 11:54:11;;;;;;;0.00;0.00;;;14.40;99.90;;;;;;4963532;28;20220;-91
2022/09/18 11:56:47;;;;;;;2.43;0.33;;;14.40;99.90;;;;;;4969601;28;20239;-91
2022/09/18 11:59:30;;;;;;;0.10;0.10;;;14.40;99.90;;;;;;4954852;28;20215;-91
2022/09/18 12:02:01;;;;;;;0.57;0.30;;;14.30;99.90;;;;;;4971424;28;20642;-90
2022/09/18 12:05:10;;;;;;;0.10;0.10;;;14.30;99.90;;;;;;4970114;28;20209;-90
2022/09/18 12:08:00;;;;;;;0.10;0.10;;;14.30;99.90;;;;;;4943321;28;20209;-90
2022/09/18 12:10:47;;;;;;;0.03;0.03;;;14.30;99.90;;;;;;4970091;28;20368;-90
2022/09/18 12:13:45;;;;;;;0.93;0.43;;;14.30;99.90;;;;;;4970424;28;20554;-88
2022/09/18 12:16:41;;;;;;;0.27;0.20;;;14.20;99.90;;;;;;4969189;28;20220;-89
2022/09/18 12:19:20;;;;;;;5.03;0.67;;;14.10;99.90;;;;;;4965203;28;20247;-90
2022/09/18 12:22:09;;;;;;;4.13;0.30;;;14.00;99.90;;;;;;4967408;28;20319;-90
2022/09/18 12:24:34;;;;;;;2.63;0.90;;;13.90;99.90;;;;;;4968092;28;20165;-90
2022/09/18 12:27:30;;;;;;;3.00;0.60;;;14.00;99.90;;;;;;4952666;28;20204;-91
2022/09/18 12:30:12;;;;;;;0.10;0.10;;;14.00;99.90;;;;;;4968506;28;20223;-89
2022/09/18 12:32:53;;;;;;;1.17;0.20;;;14.10;99.90;;;;;;4968311;28;20224;-90
2022/09/18 12:35:46;;;;;;;0.10;0.10;;;14.00;99.90;;;;;;4967990;28;20283;-89
2022/09/18 12:38:33;;;;;;;0.00;0.00;;;14.10;99.90;;;;;;4968283;28;20216;-91
2022/09/18 12:41:17;;;;;;;0.03;0.03;;;14.10;99.90;;;;;;4968619;28;20224;-91
2022/09/18 12:43:46;;;;;;;0.60;0.33;;;14.00;99.90;;;;;;4968058;28;20323;-90
2022/09/18 12:46:55;;;;;;;0.93;0.30;;;13.90;99.90;;;;;;4967647;28;20307;-89
2022/09/18 12:49:27;;;;;;;1.97;0.43;;;13.80;99.90;;;;;;4912194;29;20236;-90
2022/09/18 12:52:14;;;;;;;0.63;0.30;;;13.80;99.90;;;;;;4977442;28;20220;-89
2022/09/18 12:55:00;;;;;;;2.77;0.37;;;13.80;99.90;;;;;;4983942;28;20620;-90
2022/09/18 12:57:49;;;;;;;1.97;0.50;;;14.00;99.90;;;;;;4967516;28;20185;-91
2022/09/18 13:00:16;;;;;;;1.13;0.47;;;14.00;99.90;;;;;;4967394;28;20299;-89
2022/09/18 13:02:58;;;;;;;0.03;0.03;;;14.30;99.90;;;;;;4984404;28;20211;-88
2022/09/18 13:05:51;;;;;;;1.40;0.50;;;14.30;99.90;;;;;;4966624;28;20216;-89
2022/09/18 13:08:31;;;;;;;0.73;0.20;;;14.30;99.90;;;;;;4967397;28;20240;-90
2022/09/18 13:11:18;;;;;;;0.33;0.33;;;14.30;99.90;;;;;;4982708;28;20216;-88
2022/09/18 13:14:04;;;;;;;3.83;0.60;;;14.30;99.90;;;;;;4966886;28;20745;-89
2022/09/18 13:16:36;;;;;;;2.70;0.40;;;14.20;99.90;;;;;;4967013;28;20299;-88